createdAt,value
2019-06-10T00:01:40.876Z,95445.25
2019-06-10T00:04:12.646Z,95445.66
2019-06-10T00:06:44.253Z,95439.86
2019-06-10T00:09:15.875Z,95441.87
2019-06-10T00:11:47.107Z,95438.01
2019-06-10T00:14:18.343Z,95440.66
2019-06-10T00:16:50.890Z,95436.98
2019-06-10T00:19:22.545Z,95435.97
2019-06-10T00:21:53.870Z,95431.28
2019-06-10T00:24:25.455Z,95425.08
2019-06-10T00:26:57.787Z,95430.98
2019-06-10T00:29:31.283Z,95438.53
2019-06-10T00:32:05.371Z,95433.23
2019-06-10T00:34:35.890Z,95433.29
2019-06-10T00:37:09.184Z,95427.05
2019-06-10T00:39:40.871Z,95425.69
2019-06-10T00:42:15.021Z,95435.48
2019-06-10T00:44:45.628Z,95443.52
2019-06-10T00:47:17.012Z,95439.47
2019-06-10T00:49:48.219Z,95444.73
2019-06-10T00:52:21.354Z,95441.44
2019-06-10T00:54:52.823Z,95438.94
2019-06-10T00:57:24.321Z,95432.77
2019-06-10T00:59:55.503Z,95433.38
2019-06-10T01:02:27.124Z,95425.73
2019-06-10T01:05:00.792Z,95432.13
2019-06-10T01:07:32.044Z,95422.86
2019-06-10T01:10:04.617Z,95425.84
2019-06-10T01:12:37.181Z,95430.10
2019-06-10T01:15:09.964Z,95425.45
2019-06-10T01:17:42.046Z,95425.02
2019-06-10T01:20:15.927Z,95418.73
2019-06-10T01:22:46.974Z,95421.19
2019-06-10T01:25:18.282Z,95414.20
2019-06-10T01:27:51.576Z,95415.94
2019-06-10T01:30:26.969Z,95410.31
2019-06-10T01:32:56.416Z,95410.67
2019-06-10T01:35:27.916Z,95399.98
2019-06-10T01:38:01.054Z,95405.37
2019-06-10T01:40:32.586Z,95402.63
2019-06-10T01:43:04.412Z,95402.58
2019-06-10T01:45:36.281Z,95398.16
2019-06-10T01:48:08.808Z,95402.31
2019-06-10T01:50:41.272Z,95402.73
2019-06-10T01:53:15.651Z,95400.55
2019-06-10T01:55:45.780Z,95411.68
2019-06-10T01:58:20.966Z,95410.81
2019-06-10T02:01:01.467Z,95411.18
2019-06-10T02:03:32.674Z,95406.34
2019-06-10T02:06:04.139Z,95400.45
2019-06-10T02:08:35.665Z,95404.47
2019-06-10T02:11:07.281Z,95399.45
2019-06-10T02:13:40.830Z,95402.14
2019-06-10T02:16:14.109Z,95394.92
2019-06-10T02:18:57.654Z,95391.39
2019-06-10T02:21:21.732Z,95390.41
2019-06-10T02:23:52.049Z,95388.52
2019-06-10T02:26:23.757Z,95388.94
2019-06-10T02:28:55.361Z,95393.41
2019-06-10T02:31:35.441Z,95404.84
2019-06-10T02:34:02.575Z,95405.03
2019-06-10T02:36:36.735Z,95406.66
2019-06-10T02:39:09.715Z,95407.36
2019-06-10T02:41:44.430Z,95403.52
2019-06-10T02:44:18.517Z,95406.41
2019-06-10T02:46:48.043Z,95401.47
2019-06-10T02:49:35.261Z,95398.48
2019-06-10T02:51:53.768Z,95397.36
2019-06-10T02:54:31.275Z,95400.05
2019-06-10T02:56:58.551Z,95393.80
2019-06-10T02:59:32.831Z,95396.86
2019-06-10T03:02:03.234Z,95392.66
2019-06-10T03:04:37.599Z,95394.98
2019-06-10T03:07:07.779Z,95401.78
2019-06-10T03:09:39.369Z,95402.34
2019-06-10T03:12:12.230Z,95403.71
2019-06-10T03:14:43.744Z,95403.71
2019-06-10T03:17:17.854Z,95405.98
2019-06-10T03:19:53.390Z,95403.20
2019-06-10T03:22:25.709Z,95401.07
2019-06-10T03:24:56.842Z,95402.53
2019-06-10T03:27:28.121Z,95403.52
2019-06-10T03:30:04.786Z,95403.16
2019-06-10T03:32:40.633Z,95400.15
2019-06-10T03:35:07.628Z,95412.33
2019-06-10T03:37:39.042Z,95418.12
2019-06-10T03:40:13.107Z,95417.05
2019-06-10T03:42:44.190Z,95413.70
2019-06-10T03:45:17.455Z,95414.07
2019-06-10T03:47:49.028Z,95409.61
2019-06-10T03:50:23.949Z,95411.07
2019-06-10T03:52:53.674Z,95408.68
2019-06-10T03:55:27.935Z,95406.84
2019-06-10T03:57:58.111Z,95411.66
2019-06-10T04:00:29.524Z,95406.16
2019-06-10T04:03:02.762Z,95409.73
2019-06-10T04:05:34.273Z,95399.81
2019-06-10T04:08:05.579Z,95398.53
2019-06-10T04:10:37.111Z,95402.87
2019-06-10T04:13:08.511Z,95401.45
2019-06-10T04:15:39.871Z,95403.30
2019-06-10T04:18:12.784Z,95409.69
2019-06-10T04:20:44.624Z,95407.18
2019-06-10T04:23:16.017Z,95407.46
2019-06-10T04:25:47.635Z,95406.45
2019-06-10T04:28:19.792Z,95410.73
2019-06-10T04:30:53.201Z,95402.70
2019-06-10T04:33:25.818Z,95405.61
2019-06-10T04:35:57.151Z,95407.18
2019-06-10T04:38:29.091Z,95404.59
2019-06-10T04:41:03.069Z,95407.36
2019-06-10T04:43:33.436Z,95404.95
2019-06-10T04:46:05.445Z,95402.12
2019-06-10T04:48:36.836Z,95403.45
2019-06-10T04:51:08.427Z,95400.56
2019-06-10T04:53:41.048Z,95405.10
2019-06-10T04:56:13.280Z,95403.22
2019-06-10T04:58:45.796Z,95393.56
2019-06-10T05:01:17.308Z,95393.76
2019-06-10T05:03:49.013Z,95400.46
2019-06-10T05:06:21.750Z,95385.64
2019-06-10T05:08:53.914Z,95378.49
2019-06-10T05:11:27.004Z,95383.06
2019-06-10T05:13:58.990Z,95379.44
2019-06-10T05:16:32.352Z,95386.29
2019-06-10T05:19:03.773Z,95389.69
2019-06-10T05:21:35.135Z,95391.83
2019-06-10T05:24:06.293Z,95385.42
2019-06-10T05:26:37.754Z,95384.35
2019-06-10T05:29:09.081Z,95379.30
2019-06-10T05:31:43.235Z,95391.90
2019-06-10T05:34:13.346Z,95382.72
2019-06-10T05:36:44.596Z,95382.72
2019-06-10T05:39:15.573Z,95376.89
2019-06-10T05:41:49.985Z,95375.06
2019-06-10T05:44:19.325Z,95377.92
2019-06-10T05:46:52.776Z,95373.38
2019-06-10T05:49:25.829Z,95370.30
2019-06-10T05:51:56.469Z,95370.12
2019-06-10T05:54:29.022Z,95368.53
2019-06-10T05:57:02.546Z,95368.39
2019-06-10T05:59:34.529Z,95360.59
2019-06-10T06:02:06.771Z,95367.98
2019-06-10T06:04:37.895Z,95368.79
2019-06-10T06:07:09.032Z,95357.74
2019-06-10T06:09:42.569Z,95358.60
2019-06-10T06:12:14.259Z,95359.41
2019-06-10T06:14:45.642Z,95358.50
2019-06-10T06:17:17.113Z,95363.48
2019-06-10T06:19:48.192Z,95356.92
2019-06-10T06:22:21.977Z,95354.83
2019-06-10T06:24:52.526Z,95346.84
2019-06-10T06:27:23.676Z,95350.25
2019-06-10T06:29:54.745Z,95353.72
2019-06-10T06:32:26.269Z,95352.75
2019-06-10T06:34:57.452Z,95352.35
2019-06-10T06:37:28.954Z,95354.00
2019-06-10T06:40:02.638Z,95343.80
2019-06-10T06:42:35.048Z,95350.45
2019-06-10T06:45:06.298Z,95341.06
2019-06-10T06:47:39.007Z,95347.20
2019-06-10T06:50:12.918Z,95349.90
2019-06-10T06:53:15.367Z,95345.06
2019-06-10T06:55:17.348Z,95341.10
2019-06-10T06:57:48.946Z,95334.86
2019-06-10T07:00:38.232Z,95327.09
2019-06-10T07:02:55.391Z,95333.81
2019-06-10T07:05:26.300Z,95330.53
2019-06-10T07:07:57.645Z,95319.22
2019-06-10T07:10:28.909Z,95324.38
2019-06-10T07:13:02.929Z,95322.27
2019-06-10T07:15:46.770Z,95323.31
2019-06-10T07:18:15.321Z,95312.01
2019-06-10T07:20:47.467Z,95313.37
2019-06-10T07:23:19.608Z,95307.16
2019-06-10T07:25:53.072Z,95305.84
2019-06-10T07:28:23.702Z,95310.92
2019-06-10T07:30:55.403Z,95307.72
2019-06-10T07:33:26.924Z,95304.88
2019-06-10T07:35:58.455Z,95308.59
2019-06-10T07:38:29.744Z,95305.09
2019-06-10T07:41:02.594Z,95307.73
2019-06-10T07:43:39.589Z,95304.23
2019-06-10T07:46:08.225Z,95298.95
2019-06-10T07:48:41.040Z,95293.63
2019-06-10T07:51:13.070Z,95298.81
2019-06-10T07:53:46.762Z,95296.67
2019-06-10T07:56:17.337Z,95299.38
2019-06-10T07:58:48.714Z,95303.15
2019-06-10T08:01:22.663Z,95299.63
2019-06-10T08:03:52.943Z,95303.91
2019-06-10T08:06:24.043Z,95303.58
2019-06-10T08:08:55.331Z,95299.33
2019-06-10T08:11:26.390Z,95302.58
2019-06-10T08:13:57.874Z,95294.52
2019-06-10T08:16:29.153Z,95295.30
2019-06-10T08:19:22.082Z,95294.73
2019-06-10T08:21:33.078Z,95301.52
2019-06-10T08:24:05.397Z,95303.59
2019-06-10T08:26:37.297Z,95302.62
2019-06-10T08:29:08.752Z,95296.99
2019-06-10T08:31:43.496Z,95289.98
2019-06-10T08:34:13.544Z,95289.47
2019-06-10T08:36:47.274Z,95292.59
2019-06-10T08:39:17.423Z,95290.07
2019-06-10T08:41:49.273Z,95289.33
2019-06-10T08:44:22.945Z,95285.09
2019-06-10T08:46:54.111Z,95278.43
2019-06-10T08:49:25.576Z,95280.75
2019-06-10T08:51:56.804Z,95269.61
2019-06-10T08:54:28.084Z,95275.08
2019-06-10T08:56:59.309Z,95273.53
2019-06-10T08:59:32.544Z,95270.28
2019-06-10T09:02:03.611Z,95269.25
2019-06-10T09:04:34.986Z,95270.81
2019-06-10T09:07:06.559Z,95268.59
2019-06-10T09:09:39.286Z,95261.08
2019-06-10T09:12:28.325Z,95246.91
2019-06-10T09:14:46.835Z,95249.77
2019-06-10T09:17:17.254Z,95248.41
2019-06-10T09:19:51.194Z,95249.12
2019-06-10T09:22:23.611Z,95236.41
2019-06-10T09:24:56.307Z,95241.00
2019-06-10T09:27:27.273Z,95234.58
2019-06-10T09:29:58.309Z,95241.27
2019-06-10T09:32:32.317Z,95245.88
2019-06-10T09:35:03.463Z,95241.50
2019-06-10T09:37:34.982Z,95241.20
2019-06-10T09:40:07.899Z,95234.83
2019-06-10T09:42:41.615Z,95233.85
2019-06-10T09:45:13.079Z,95236.70
2019-06-10T09:47:47.340Z,95224.94
2019-06-10T09:50:22.635Z,95220.91
2019-06-10T09:52:57.004Z,95220.00
2019-06-10T09:55:32.983Z,95225.36
2019-06-10T09:58:04.212Z,95219.64
2019-06-10T10:00:50.477Z,95214.73
2019-06-10T10:03:19.824Z,95212.76
2019-06-10T10:06:01.662Z,95219.92
2019-06-10T10:08:24.641Z,95202.39
2019-06-10T10:10:58.636Z,95207.38
2019-06-10T10:13:29.192Z,95201.19
2019-06-10T10:16:02.587Z,95200.95
2019-06-10T10:18:34.008Z,95197.13
2019-06-10T10:21:05.441Z,95189.63
2019-06-10T10:23:51.183Z,95192.69
2019-06-10T10:26:12.296Z,95200.95
2019-06-10T10:28:44.553Z,95199.12
2019-06-10T10:31:15.436Z,95213.77
2019-06-10T10:33:46.803Z,95230.50
2019-06-10T10:36:18.156Z,95211.05
2019-06-10T10:38:50.755Z,95220.71
2019-06-10T10:41:23.448Z,95223.55
2019-06-10T10:43:58.125Z,95209.64
2019-06-10T10:46:27.446Z,95182.30
2019-06-10T10:48:58.693Z,95181.41
2019-06-10T10:51:32.483Z,95191.14
2019-06-10T10:54:20.875Z,95188.98
2019-06-10T10:56:36.401Z,95198.36
2019-06-10T10:59:07.590Z,95102.92
2019-06-10T11:01:42.312Z,95169.29
2019-06-10T11:04:13.475Z,95174.88
2019-06-10T11:06:46.166Z,95165.83
2019-06-10T11:09:22.032Z,95161.37
2019-06-10T11:11:55.004Z,95157.19
2019-06-10T11:14:26.624Z,95158.20
2019-06-10T11:16:59.023Z,95156.19
2019-06-10T11:19:32.400Z,95142.30
2019-06-10T11:22:05.433Z,95142.30
2019-06-10T11:24:41.183Z,95153.39
2019-06-10T11:27:09.400Z,95135.84
2019-06-10T11:29:42.270Z,95130.75
2019-06-10T11:32:13.353Z,95127.84
2019-06-10T11:34:45.819Z,95133.61
2019-06-10T11:37:17.570Z,95139.64
2019-06-10T11:39:50.179Z,95123.77
2019-06-10T11:42:23.359Z,95128.39
2019-06-10T11:44:57.406Z,95120.05
2019-06-10T11:47:26.923Z,95118.75
2019-06-10T11:49:58.145Z,95137.31
2019-06-10T11:52:33.346Z,95126.55
2019-06-10T11:55:13.345Z,95119.35
2019-06-10T11:57:35.992Z,95121.65
2019-06-10T12:00:14.749Z,95116.56
2019-06-10T12:02:42.458Z,95118.08
2019-06-10T12:05:13.793Z,95110.08
2019-06-10T12:07:45.119Z,95112.72
2019-06-10T12:10:18.240Z,95111.59
2019-06-10T12:12:53.553Z,95119.23
2019-06-10T12:15:22.910Z,95119.23
2019-06-10T12:18:01.853Z,95109.80
2019-06-10T12:20:28.556Z,95106.78
2019-06-10T12:23:03.787Z,95107.74
2019-06-10T12:25:39.254Z,95102.59
2019-06-10T12:28:07.692Z,95110.91
2019-06-10T12:30:42.192Z,95118.27
2019-06-10T12:33:21.459Z,95106.39
2019-06-10T12:35:47.140Z,95106.56
2019-06-10T12:38:19.685Z,95103.37
2019-06-10T12:40:52.431Z,95099.56
2019-06-10T12:43:24.305Z,95094.31
2019-06-10T12:45:57.170Z,95087.22
2019-06-10T12:48:28.186Z,95088.22
2019-06-10T12:51:00.586Z,95083.64
2019-06-10T12:53:32.534Z,95086.98
2019-06-10T12:56:10.148Z,95090.86
2019-06-10T12:58:37.194Z,95084.98
2019-06-10T13:01:08.415Z,95081.28
2019-06-10T13:03:39.392Z,95079.25
2019-06-10T13:06:12.860Z,95069.33
2019-06-10T13:08:44.203Z,95068.25
2019-06-10T13:11:15.454Z,95065.52
2019-06-10T13:13:46.581Z,95054.44
2019-06-10T13:16:17.664Z,95054.55
2019-06-10T13:18:48.628Z,95057.34
2019-06-10T13:21:22.569Z,95067.41
2019-06-10T13:23:54.168Z,95059.75
2019-06-10T13:26:25.617Z,95044.45
2019-06-10T13:28:56.997Z,95055.11
2019-06-10T13:31:28.266Z,95055.11
2019-06-10T13:34:05.043Z,95036.09
2019-06-10T13:36:33.389Z,95045.77
2019-06-10T13:39:09.822Z,95043.88
2019-06-10T13:41:39.297Z,95050.02
2019-06-10T13:44:15.299Z,95035.46
2019-06-10T13:46:43.921Z,95028.23
2019-06-10T13:49:15.618Z,95028.23
2019-06-10T13:51:46.945Z,95015.78
2019-06-10T13:54:17.925Z,95023.81
2019-06-10T13:56:49.466Z,95039.39
2019-06-10T13:59:22.946Z,95052.58
2019-06-10T14:01:53.654Z,95066.69
2019-06-10T14:04:25.744Z,95070.80
2019-06-10T14:06:57.433Z,95071.70
2019-06-10T14:09:29.666Z,95076.59
2019-06-10T14:12:01.985Z,95069.77
2019-06-10T14:14:33.351Z,95058.98
2019-06-10T14:17:05.595Z,95062.37
2019-06-10T14:19:37.421Z,95064.90
2019-06-10T14:22:10.820Z,95061.94
2019-06-10T14:24:42.208Z,95060.21
2019-06-10T14:27:17.192Z,95060.53
2019-06-10T14:29:46.820Z,95077.54
2019-06-10T14:32:18.285Z,95075.77
2019-06-10T14:34:49.509Z,95085.49
2019-06-10T14:37:35.124Z,95076.14
2019-06-10T14:39:53.748Z,95085.99
2019-06-10T14:42:24.756Z,95086.17
2019-06-10T14:44:56.168Z,95084.71
2019-06-10T14:47:27.200Z,95084.73
2019-06-10T14:49:58.726Z,95078.57
2019-06-10T14:52:31.975Z,95082.38
2019-06-10T14:55:02.690Z,95077.25
2019-06-10T14:57:33.930Z,95070.63
2019-06-10T15:00:05.718Z,95060.34
2019-06-10T15:02:36.744Z,95070.63
2019-06-10T15:05:09.168Z,95067.41
2019-06-10T15:07:42.335Z,95063.09
2019-06-10T15:10:15.961Z,95049.35
2019-06-10T15:12:46.510Z,95052.09
2019-06-10T15:15:18.100Z,95051.61
2019-06-10T15:17:49.244Z,95051.03
2019-06-10T15:20:22.702Z,95049.02
2019-06-10T15:22:53.769Z,95045.48
2019-06-10T15:25:28.183Z,95041.45
2019-06-10T15:27:57.634Z,95040.44
2019-06-10T15:30:31.361Z,95039.35
2019-06-10T15:33:02.990Z,95024.77
2019-06-10T15:35:34.245Z,95008.61
2019-06-10T15:38:05.621Z,94993.58
2019-06-10T15:40:36.753Z,94977.51
2019-06-10T15:43:08.012Z,94970.70
2019-06-10T15:45:39.335Z,94978.55
2019-06-10T15:48:15.569Z,94969.56
2019-06-10T15:50:45.598Z,94977.13
2019-06-10T15:53:18.668Z,94967.80
2019-06-10T15:56:10.093Z,94968.29
2019-06-10T15:58:25.747Z,94967.20
2019-06-10T16:00:55.647Z,94972.00
2019-06-10T16:03:26.717Z,94976.28
2019-06-10T16:05:58.960Z,94980.87
2019-06-10T16:08:32.475Z,94990.84
2019-06-10T16:11:03.643Z,94997.84
2019-06-10T16:13:35.002Z,94992.27
2019-06-10T16:16:06.703Z,94985.86
2019-06-10T16:18:37.816Z,94980.13
2019-06-10T16:21:08.951Z,94974.65
2019-06-10T16:23:42.821Z,94974.70
2019-06-10T16:26:14.843Z,94976.27
2019-06-10T16:28:45.970Z,94973.45
2019-06-10T16:31:18.310Z,94966.58
2019-06-10T16:33:49.769Z,94966.27
2019-06-10T16:36:21.871Z,94971.28
2019-06-10T16:38:53.769Z,94971.28
2019-06-10T16:41:27.829Z,94983.69
2019-06-10T16:43:57.562Z,94992.63
2019-06-10T16:46:29.217Z,94997.47
2019-06-10T16:49:03.226Z,95011.78
2019-06-10T16:51:34.956Z,95016.01
2019-06-10T16:54:06.387Z,95008.47
2019-06-10T16:56:37.928Z,95009.55
2019-06-10T16:59:09.139Z,95007.84
2019-06-10T17:01:42.649Z,95010.02
2019-06-10T17:04:13.648Z,95016.58
2019-06-10T17:06:44.793Z,95028.64
2019-06-10T17:09:16.011Z,95024.84
2019-06-10T17:11:46.914Z,95038.95
2019-06-10T17:14:18.097Z,95029.17
2019-06-10T17:16:52.286Z,95033.21
2019-06-10T17:19:26.695Z,95034.06
2019-06-10T17:21:56.483Z,95033.73
2019-06-10T17:24:29.425Z,95035.14
2019-06-10T17:27:02.647Z,95036.64
2019-06-10T17:29:34.149Z,95030.84
2019-06-10T17:32:05.261Z,95030.80
2019-06-10T17:34:36.821Z,95028.66
2019-06-10T17:37:08.155Z,95028.48
2019-06-10T17:39:39.427Z,95024.35
2019-06-10T17:42:12.386Z,95017.56
2019-06-10T17:44:43.905Z,95014.20
2019-06-10T17:47:15.010Z,95016.63
2019-06-10T17:49:46.110Z,95013.91
2019-06-10T17:52:17.469Z,95010.07
2019-06-10T17:54:48.684Z,95007.18
2019-06-10T17:57:20.115Z,95006.38
2019-06-10T17:59:52.431Z,95000.41
2019-06-10T18:02:24.652Z,94999.31
2019-06-10T18:04:56.674Z,94998.04
2019-06-10T18:07:28.072Z,95002.02
2019-06-10T18:09:59.333Z,95001.96
2019-06-10T18:12:34.261Z,95003.29
2019-06-10T18:15:04.664Z,95000.77
2019-06-10T18:17:36.441Z,95000.59
2019-06-10T18:20:07.653Z,95002.97
2019-06-10T18:22:38.977Z,94999.22
2019-06-10T18:25:12.330Z,95006.70
2019-06-10T18:27:44.243Z,95013.25
2019-06-10T18:30:16.021Z,95008.75
2019-06-10T18:32:47.439Z,95009.36
2019-06-10T18:35:19.184Z,95011.88
2019-06-10T18:37:52.779Z,95017.61
2019-06-10T18:40:23.763Z,95026.62
2019-06-10T18:42:55.078Z,95030.44
2019-06-10T18:45:27.536Z,95036.75
2019-06-10T18:47:58.919Z,95037.50
2019-06-10T18:50:33.289Z,95038.97
2019-06-10T18:53:04.237Z,95047.16
2019-06-10T18:55:38.705Z,95052.75
2019-06-10T18:58:08.262Z,95060.92
2019-06-10T19:00:54.907Z,95068.73
2019-06-10T19:03:16.547Z,95061.55
2019-06-10T19:05:45.742Z,95052.72
2019-06-10T19:08:17.457Z,95049.58
2019-06-10T19:10:48.450Z,95056.27
2019-06-10T19:13:22.217Z,95051.27
2019-06-10T19:15:53.222Z,95063.06
2019-06-10T19:18:25.197Z,95054.59
2019-06-10T19:20:57.172Z,95049.91
2019-06-10T19:23:30.235Z,95055.76
2019-06-10T19:26:03.567Z,95058.62
2019-06-10T19:28:37.118Z,95065.18
2019-06-10T19:31:07.742Z,95060.63
2019-06-10T19:33:40.281Z,95070.84
2019-06-10T19:36:12.649Z,95079.81
2019-06-10T19:38:45.187Z,95080.33
2019-06-10T19:41:16.764Z,95074.09
2019-06-10T19:43:48.589Z,95070.84
2019-06-10T19:46:19.923Z,95079.83
2019-06-10T19:48:59.580Z,95086.22
2019-06-10T19:51:24.653Z,95096.99
2019-06-10T19:53:55.949Z,95092.28
2019-06-10T19:56:26.906Z,95120.58
2019-06-10T19:58:58.246Z,95111.52
2019-06-10T20:01:29.640Z,95116.36
2019-06-10T20:04:02.657Z,95119.80
2019-06-10T20:06:34.334Z,95115.59
2019-06-10T20:09:09.830Z,95121.86
2019-06-10T20:11:45.599Z,95120.83
2019-06-10T20:14:14.606Z,95123.02
2019-06-10T20:16:46.202Z,95122.47
2019-06-10T20:19:17.748Z,95128.40
2019-06-10T20:21:49.062Z,95129.31
2019-06-10T20:24:22.204Z,95129.78
2019-06-10T20:26:53.587Z,95131.22
2019-06-10T20:29:24.795Z,95137.97
2019-06-10T20:31:56.004Z,95124.72
2019-06-10T20:34:27.574Z,95129.16
2019-06-10T20:36:59.323Z,95125.00
2019-06-10T20:39:32.986Z,95119.09
2019-06-10T20:42:04.021Z,95106.86
2019-06-10T20:44:35.433Z,95094.55
2019-06-10T20:47:07.157Z,95096.94
2019-06-10T20:49:39.551Z,95080.25
2019-06-10T20:52:14.619Z,95087.14
2019-06-10T20:54:46.359Z,95085.91
2019-06-10T20:57:17.494Z,95086.50
2019-06-10T20:59:49.796Z,95091.77
2019-06-10T21:02:22.668Z,95084.23
2019-06-10T21:04:54.118Z,95083.03
2019-06-10T21:07:26.186Z,95083.14
2019-06-10T21:10:02.568Z,95090.64
2019-06-10T21:12:33.687Z,95085.42
2019-06-10T21:15:05.646Z,95078.38
2019-06-10T21:17:36.899Z,95070.68
2019-06-10T21:20:08.325Z,95070.30
2019-06-10T21:22:40.391Z,95068.45
2019-06-10T21:25:12.713Z,95063.46
2019-06-10T21:27:46.311Z,95061.22
2019-06-10T21:30:17.155Z,95064.73
2019-06-10T21:32:49.916Z,95074.06
2019-06-10T21:35:21.601Z,95075.95
2019-06-10T21:37:53.060Z,95070.44
2019-06-10T21:40:24.326Z,95068.69
2019-06-10T21:42:56.738Z,95063.45
2019-06-10T21:45:28.328Z,95060.81
2019-06-10T21:48:01.971Z,95052.02
2019-06-10T21:50:33.821Z,95055.27
2019-06-10T21:53:05.018Z,95057.39
2019-06-10T21:55:36.216Z,95050.50
2019-06-10T21:58:07.387Z,95045.89
2019-06-10T22:00:59.367Z,95036.55
2019-06-10T22:03:17.183Z,95032.14
2019-06-10T22:05:49.561Z,95031.13
2019-06-10T22:08:21.915Z,95040.16
2019-06-10T22:10:56.151Z,95034.27
2019-06-10T22:13:26.237Z,95036.42
2019-06-10T22:15:57.628Z,95037.01
2019-06-10T22:18:29.082Z,95035.02
2019-06-10T22:21:02.728Z,95031.37
2019-06-10T22:23:33.890Z,95026.88
2019-06-10T22:26:06.141Z,95024.63
2019-06-10T22:28:37.720Z,95024.70
2019-06-10T22:31:19.694Z,95018.33
2019-06-10T22:33:43.138Z,95010.42
2019-06-10T22:36:14.858Z,95011.78
2019-06-10T22:38:46.271Z,95024.33
2019-06-10T22:41:17.491Z,95027.39
2019-06-10T22:43:49.371Z,95027.79
2019-06-10T22:46:22.991Z,95017.13
2019-06-10T22:48:55.222Z,95008.41
2019-06-10T22:51:27.117Z,95003.19
2019-06-10T22:53:59.995Z,94991.67
2019-06-10T22:56:31.616Z,94995.42
2019-06-10T22:59:03.655Z,94988.44
2019-06-10T23:01:38.450Z,94992.79
2019-06-10T23:04:09.110Z,94989.42
2019-06-10T23:06:40.979Z,94977.96
2019-06-10T23:09:13.026Z,94976.81
2019-06-10T23:11:44.685Z,94983.26
2019-06-10T23:14:16.595Z,94981.00
2019-06-10T23:16:48.855Z,94974.38
2019-06-10T23:19:20.541Z,94967.48
2019-06-10T23:21:54.228Z,94968.14
2019-06-10T23:24:25.497Z,94965.09
2019-06-10T23:26:57.909Z,94961.50
2019-06-10T23:29:32.230Z,94957.96
2019-06-10T23:32:07.081Z,94967.86
2019-06-10T23:34:36.864Z,94966.62
2019-06-10T23:37:08.052Z,94959.91
2019-06-10T23:39:39.399Z,94957.67
2019-06-10T23:42:12.220Z,94955.42
2019-06-10T23:44:43.571Z,94953.64
2019-06-10T23:47:15.014Z,94952.89
2019-06-10T23:49:46.617Z,94944.14
2019-06-10T23:52:18.312Z,94943.81
2019-06-10T23:54:49.994Z,94945.28
2019-06-10T23:57:22.315Z,94947.23
2019-06-10T23:59:55.260Z,94946.89
